TimeEET,TemperatureF,Dew PointF,Humidity,Sea Level PressureIn,VisibilityMPH,Wind Direction,Wind SpeedMPH,Gust SpeedMPH,PrecipitationIn,Events,Conditions,WindDirDegrees,DateUTC
12:00 AM,75.2,69.8,83,29.80,-9999.0,NNW,2.3,-,N/A,,Clear,330,2013-06-24 22:00:00
1:00 AM,73.4,69.8,88,29.80,-9999.0,NNW,2.3,-,N/A,,Clear,330,2013-06-24 23:00:00
2:00 AM,72,69,87,29.81,6,Calm,Calm,,,,,,2013-06-25 00:00:00
2:00 AM,71.6,69.8,94,29.80,-9999.0,Calm,Calm,-,N/A,,Clear,0,2013-06-25 00:00:00
3:00 AM,71.6,69.8,94,29.80,-9999.0,Calm,Calm,-,N/A,,Clear,0,2013-06-25 01:00:00
4:00 AM,71.6,69.8,94,29.80,-9999.0,WNW,2.3,-,N/A,,Clear,290,2013-06-25 02:00:00
5:00 AM,73.4,69.8,88,29.83,6.2,West,5.8,-,N/A,,Partly Cloudy,280,2013-06-25 03:00:00
6:00 AM,73.4,69.8,88,29.83,6.2,West,5.8,-,N/A,,Partly Cloudy,280,2013-06-25 04:00:00
8:00 AM,82,67,51,29.84,6,WNW,6.9,,,,,300,2013-06-25 06:00:00
8:00 AM,82.4,66.2,58,29.83,-9999.0,WNW,6.9,-,N/A,,Clear,300,2013-06-25 06:00:00
9:00 AM,84.2,68.0,58,29.83,-9999.0,WNW,9.2,-,N/A,,Clear,300,2013-06-25 07:00:00
10:00 AM,84.2,62.6,48,29.83,6.2,WNW,9.2,-,N/A,,Partly Cloudy,290,2013-06-25 08:00:00
11:00 AM,84.2,68.0,58,29.83,6.2,WNW,11.5,-,N/A,,Partly Cloudy,290,2013-06-25 09:00:00
1:00 PM,87.8,68.0,52,29.83,6.2,NW,11.5,-,N/A,,Partly Cloudy,320,2013-06-25 11:00:00
2:00 PM,86,71,52,29.83,6,NW,11.5,,,,Scattered Clouds,320,2013-06-25 12:00:00
3:00 PM,84.2,73.4,70,29.83,6.2,NW,11.5,-,N/A,,Partly Cloudy,310,2013-06-25 13:00:00
4:00 PM,84.2,71.6,66,29.83,6.2,NW,13.8,-,N/A,,Partly Cloudy,320,2013-06-25 14:00:00
5:00 PM,82.4,73.4,74,29.83,6.2,WNW,15.0,-,N/A,,Partly Cloudy,290,2013-06-25 15:00:00
6:00 PM,82.4,73.4,74,29.83,6.2,NW,13.8,-,N/A,,Partly Cloudy,310,2013-06-25 16:00:00
7:00 PM,78.8,73.4,83,29.83,6.2,North,9.2,-,N/A,,Partly Cloudy,350,2013-06-25 17:00:00
8:00 PM,78,72,78,29.84,6,NW,6.9,,,,Scattered Clouds,310,2013-06-25 18:00:00
8:00 PM,78.8,71.6,78,29.83,6.2,NW,6.9,-,N/A,,Partly Cloudy,310,2013-06-25 18:00:00
9:00 PM,78.8,73.4,83,29.83,6.2,WNW,6.9,-,N/A,,Partly Cloudy,300,2013-06-25 19:00:00
10:00 PM,78.8,73.4,83,29.83,6.2,NW,13.8,-,N/A,,Partly Cloudy,310,2013-06-25 20:00:00
11:00 PM,77.0,71.6,83,29.83,-9999.0,WNW,9.2,-,N/A,,Clear,290,2013-06-25 21:00:00